createdAt,value
2018-09-26T00:01:42.941Z,10.34
2018-09-26T00:04:49.147Z,10.33
2018-09-26T00:07:52.685Z,10.29
2018-09-26T00:10:56.183Z,10.26
2018-09-26T00:13:59.666Z,10.27
2018-09-26T00:17:03.160Z,10.22
2018-09-26T00:20:07.587Z,10.19
2018-09-26T00:23:10.929Z,10.23
2018-09-26T00:26:14.383Z,10.20
2018-09-26T00:29:17.909Z,10.17
2018-09-26T00:32:21.375Z,10.15
2018-09-26T00:35:25.897Z,10.14
2018-09-26T00:38:29.317Z,10.15
2018-09-26T00:41:32.692Z,10.17
2018-09-26T00:44:36.329Z,10.12
2018-09-26T00:47:39.804Z,10.04
2018-09-26T00:50:43.188Z,10.04
2018-09-26T00:53:46.617Z,9.98
2018-09-26T00:56:50.038Z,9.90
2018-09-26T00:59:53.522Z,9.86
2018-09-26T01:02:58.011Z,9.82
2018-09-26T01:06:01.434Z,9.86
2018-09-26T01:09:07.718Z,9.86
2018-09-26T01:12:11.087Z,9.87
2018-09-26T01:15:14.496Z,9.87
2018-09-26T01:18:17.938Z,9.87
2018-09-26T01:21:21.400Z,9.74
2018-09-26T01:24:24.817Z,9.70
2018-09-26T01:27:32.040Z,9.74
2018-09-26T01:30:35.565Z,9.74
2018-09-26T01:33:39.005Z,9.71
2018-09-26T01:36:42.401Z,9.69
2018-09-26T01:39:45.796Z,9.65
2018-09-26T01:42:49.197Z,9.54
2018-09-26T01:45:52.598Z,9.53
2018-09-26T01:48:55.990Z,9.54
2018-09-26T01:51:59.491Z,9.57
2018-09-26T01:55:02.987Z,9.57
2018-09-26T01:58:06.549Z,9.54
2018-09-26T02:01:09.999Z,9.54
2018-09-26T02:04:13.394Z,9.47
2018-09-26T02:07:16.814Z,9.42
2018-09-26T02:10:20.235Z,9.37
2018-09-26T02:13:23.578Z,9.36
2018-09-26T02:16:26.996Z,9.40
2018-09-26T02:19:30.467Z,9.41
2018-09-26T02:22:33.905Z,9.41
2018-09-26T02:25:38.333Z,9.43
2018-09-26T02:28:41.792Z,9.36
2018-09-26T02:31:45.235Z,9.34
2018-09-26T02:34:49.654Z,9.27
2018-09-26T02:37:53.052Z,9.22
2018-09-26T02:40:56.473Z,9.21
2018-09-26T02:43:59.858Z,9.19
2018-09-26T02:47:03.687Z,9.18
2018-09-26T02:50:07.126Z,9.18
2018-09-26T02:53:10.592Z,9.16
2018-09-26T02:56:13.976Z,9.12
2018-09-26T02:59:17.372Z,9.12
2018-09-26T03:02:20.794Z,9.12
2018-09-26T03:05:24.224Z,9.09
2018-09-26T03:08:27.567Z,9.03
2018-09-26T03:11:31.073Z,9.03
2018-09-26T03:14:34.583Z,8.97
2018-09-26T03:17:38.065Z,8.99
2018-09-26T03:20:41.592Z,8.93
2018-09-26T03:23:45.091Z,8.89
2018-09-26T03:26:48.616Z,8.89
2018-09-26T03:29:52.096Z,8.92
2018-09-26T03:32:55.600Z,8.86
2018-09-26T03:35:59.289Z,8.83
2018-09-26T03:39:02.918Z,8.83
2018-09-26T03:42:06.445Z,8.73
2018-09-26T03:45:09.921Z,8.64
2018-09-26T03:48:13.532Z,8.64
2018-09-26T03:51:17.063Z,8.66
2018-09-26T03:54:20.532Z,8.68
2018-09-26T03:57:24.035Z,8.66
2018-09-26T04:00:27.513Z,8.69
2018-09-26T04:03:31.030Z,8.72
2018-09-26T04:06:34.535Z,8.74
2018-09-26T04:09:38.033Z,8.73
2018-09-26T04:12:41.664Z,8.71
2018-09-26T04:15:51.662Z,8.77
2018-09-26T04:18:55.119Z,8.74
2018-09-26T04:21:58.614Z,8.78
2018-09-26T04:25:02.088Z,8.75
2018-09-26T04:28:05.673Z,8.86
2018-09-26T04:31:09.243Z,8.87
2018-09-26T04:34:12.713Z,8.92
2018-09-26T04:37:16.213Z,8.91
2018-09-26T04:40:19.715Z,8.91
2018-09-26T04:43:23.308Z,8.91
2018-09-26T04:46:26.828Z,8.86
2018-09-26T04:49:30.537Z,8.79
2018-09-26T04:52:34.136Z,8.76
2018-09-26T04:55:37.646Z,8.73
2018-09-26T04:58:41.173Z,8.71
2018-09-26T05:01:44.693Z,8.67
2018-09-26T05:04:48.174Z,8.62
2018-09-26T05:07:51.800Z,8.59
2018-09-26T05:10:55.288Z,8.54
2018-09-26T05:13:58.885Z,8.49
2018-09-26T05:17:02.431Z,8.51
2018-09-26T05:20:06.040Z,8.48
2018-09-26T05:23:09.714Z,8.41
2018-09-26T05:26:13.218Z,8.45
2018-09-26T05:29:16.709Z,8.44
2018-09-26T05:32:20.198Z,8.44
2018-09-26T05:35:23.695Z,8.48
2018-09-26T05:38:27.196Z,8.48
2018-09-26T05:41:30.740Z,8.51
2018-09-26T05:44:34.203Z,8.54
2018-09-26T05:47:37.706Z,8.58
2018-09-26T05:50:41.232Z,8.63
2018-09-26T05:53:44.730Z,8.68
2018-09-26T05:56:48.250Z,8.76
2018-09-26T05:59:51.722Z,8.79
2018-09-26T06:02:55.227Z,8.85
2018-09-26T06:05:58.833Z,8.91
2018-09-26T06:09:06.194Z,8.92
2018-09-26T06:12:10.669Z,8.91
2018-09-26T06:15:14.205Z,8.85
2018-09-26T06:18:17.788Z,8.89
2018-09-26T06:21:21.300Z,8.98
2018-09-26T06:24:24.760Z,9.07
2018-09-26T06:27:28.328Z,9.11
2018-09-26T06:30:31.783Z,9.14
2018-09-26T06:33:35.535Z,9.18
2018-09-26T06:36:38.963Z,9.23
2018-09-26T06:39:42.471Z,9.34
2018-09-26T06:42:46.103Z,9.40
2018-09-26T06:45:49.590Z,9.38
2018-09-26T06:48:53.100Z,9.48
2018-09-26T06:51:56.592Z,9.59
2018-09-26T06:55:00.158Z,9.80
2018-09-26T06:58:03.604Z,9.93
2018-09-26T07:01:07.213Z,9.99
2018-09-26T07:04:10.691Z,10.16
2018-09-26T07:07:14.387Z,10.24
2018-09-26T07:10:17.838Z,10.33
2018-09-26T07:13:21.310Z,10.55
2018-09-26T07:16:24.899Z,10.66
2018-09-26T07:19:28.416Z,10.72
2018-09-26T07:22:31.908Z,10.82
2018-09-26T07:25:36.467Z,10.82
2018-09-26T07:28:39.955Z,10.93
2018-09-26T07:31:43.490Z,11.03
2018-09-26T07:34:48.011Z,11.05
2018-09-26T07:37:51.525Z,11.12
2018-09-26T07:40:55.007Z,11.25
2018-09-26T07:43:58.598Z,11.19
2018-09-26T07:47:02.125Z,11.18
2018-09-26T07:50:05.732Z,11.24
2018-09-26T07:53:10.309Z,11.32
2018-09-26T07:56:13.812Z,11.40
2018-09-26T07:59:17.357Z,11.49
2018-09-26T08:02:22.814Z,11.62
2018-09-26T08:05:26.323Z,11.66
2018-09-26T08:08:29.925Z,11.69
2018-09-26T08:11:33.432Z,11.91
2018-09-26T08:14:36.943Z,12.07
2018-09-26T08:17:40.521Z,12.11
2018-09-26T08:20:44.047Z,12.20
2018-09-26T08:23:47.589Z,12.28
2018-09-26T08:26:51.032Z,12.21
2018-09-26T08:29:54.502Z,12.26
2018-09-26T08:32:58.021Z,12.54
2018-09-26T08:36:01.611Z,12.68
2018-09-26T08:39:09.515Z,12.80
2018-09-26T08:42:13.179Z,13.00
2018-09-26T08:45:16.685Z,13.12
2018-09-26T08:48:20.460Z,13.42
2018-09-26T08:51:24.852Z,13.50
2018-09-26T08:54:28.375Z,13.29
2018-09-26T08:57:31.898Z,13.28
2018-09-26T09:00:36.258Z,13.46
2018-09-26T09:03:39.713Z,13.76
2018-09-26T09:06:43.455Z,13.89
2018-09-26T09:09:47.100Z,14.19
2018-09-26T09:12:50.541Z,14.34
2018-09-26T09:15:54.050Z,14.47
2018-09-26T09:18:57.677Z,14.44
2018-09-26T09:22:01.160Z,14.52
2018-09-26T09:25:04.723Z,14.72
2018-09-26T09:28:08.251Z,14.86
2018-09-26T09:31:11.777Z,14.81
2018-09-26T09:34:15.260Z,15.07
2018-09-26T09:37:18.766Z,14.95
2018-09-26T09:40:22.265Z,14.68
2018-09-26T09:43:25.826Z,15.05
2018-09-26T09:46:29.294Z,14.96
2018-09-26T09:49:32.778Z,14.97
2018-09-26T09:52:36.296Z,14.95
2018-09-26T09:55:39.805Z,14.97
2018-09-26T09:58:43.301Z,14.96
2018-09-26T10:01:46.900Z,15.17
2018-09-26T10:04:50.460Z,15.53
2018-09-26T10:07:54.391Z,15.63
2018-09-26T10:10:58.009Z,16.00
2018-09-26T10:14:01.622Z,16.03
2018-09-26T10:17:05.226Z,15.57
2018-09-26T10:20:08.865Z,15.54
2018-09-26T10:23:12.315Z,15.84
2018-09-26T10:26:15.848Z,16.07
2018-09-26T10:29:19.376Z,16.36
2018-09-26T10:32:22.872Z,16.39
2018-09-26T10:35:26.511Z,16.50
2018-09-26T10:38:30.042Z,16.60
2018-09-26T10:41:33.609Z,16.44
2018-09-26T10:44:37.243Z,16.32
2018-09-26T10:47:40.779Z,16.10
2018-09-26T10:50:44.248Z,16.36
2018-09-26T10:53:47.763Z,16.36
2018-09-26T10:56:51.260Z,15.85
2018-09-26T10:59:54.889Z,15.82
2018-09-26T11:02:58.450Z,15.82
2018-09-26T11:06:02.034Z,16.14
2018-09-26T11:09:08.270Z,16.76
2018-09-26T11:12:11.796Z,17.13
2018-09-26T11:15:15.321Z,17.46
2018-09-26T11:18:18.742Z,17.90
2018-09-26T11:21:22.209Z,17.82
2018-09-26T11:24:25.648Z,17.14
2018-09-26T11:27:29.158Z,17.37
2018-09-26T11:30:32.547Z,17.33
2018-09-26T11:33:36.100Z,17.40
2018-09-26T11:36:39.596Z,17.49
2018-09-26T11:42:40.354Z,17.67
2018-09-26T11:45:43.816Z,17.84
2018-09-26T11:48:47.229Z,17.66
2018-09-26T11:51:50.717Z,17.32
2018-09-26T11:54:54.242Z,17.78
2018-09-26T11:57:57.727Z,17.95
2018-09-26T12:01:01.277Z,18.10
2018-09-26T12:04:04.782Z,17.77
2018-09-26T12:07:15.033Z,17.68
2018-09-26T12:10:18.499Z,17.61
2018-09-26T12:13:21.909Z,17.78
2018-09-26T12:16:25.555Z,17.96
2018-09-26T12:19:28.953Z,17.99
2018-09-26T12:22:32.447Z,18.18
2018-09-26T12:25:35.918Z,18.31
2018-09-26T12:28:39.410Z,18.37
2018-09-26T12:31:42.811Z,18.43
2018-09-26T12:34:46.256Z,18.55
2018-09-26T12:37:49.715Z,18.51
2018-09-26T12:40:53.203Z,18.50
2018-09-26T12:43:57.857Z,18.57
2018-09-26T12:47:01.333Z,18.54
2018-09-26T12:50:05.617Z,18.44
2018-09-26T12:53:09.520Z,18.15
2018-09-26T12:56:13.189Z,18.12
2018-09-26T12:59:16.690Z,18.17
2018-09-26T13:02:20.395Z,18.24
2018-09-26T13:05:23.913Z,18.34
2018-09-26T13:08:27.436Z,18.56
2018-09-26T13:11:31.051Z,18.68
2018-09-26T13:14:34.521Z,18.68
2018-09-26T13:17:38.332Z,18.83
2018-09-26T13:20:41.815Z,18.82
2018-09-26T13:23:45.456Z,18.75
2018-09-26T13:26:48.931Z,18.97
2018-09-26T13:29:52.446Z,19.08
2018-09-26T13:32:56.019Z,19.08
2018-09-26T13:35:59.473Z,19.04
2018-09-26T13:39:03.128Z,19.07
2018-09-26T13:42:06.767Z,19.03
2018-09-26T13:45:10.176Z,19.15
2018-09-26T13:48:13.686Z,19.31
2018-09-26T13:51:17.198Z,19.24
2018-09-26T13:54:20.934Z,19.33
2018-09-26T13:57:24.473Z,19.30
2018-09-26T14:00:27.956Z,19.46
2018-09-26T14:03:31.428Z,19.47
2018-09-26T14:06:35.173Z,19.28
2018-09-26T14:09:38.688Z,19.02
2018-09-26T14:12:42.510Z,19.13
2018-09-26T14:15:45.897Z,19.01
2018-09-26T14:18:49.677Z,18.99
2018-09-26T14:21:53.307Z,19.07
2018-09-26T14:24:57.042Z,19.05
2018-09-26T14:28:00.916Z,19.16
2018-09-26T14:31:05.092Z,19.13
2018-09-26T14:34:08.776Z,19.13
2018-09-26T14:37:12.367Z,19.18
2018-09-26T14:40:16.077Z,19.22
2018-09-26T14:43:19.816Z,19.24
2018-09-26T14:46:23.677Z,19.66
2018-09-26T14:49:27.260Z,20.08
2018-09-26T14:52:31.140Z,20.23
2018-09-26T14:55:34.590Z,20.51
2018-09-26T14:58:38.754Z,20.66
2018-09-26T15:01:42.403Z,20.60
2018-09-26T15:04:46.271Z,20.04
2018-09-26T15:07:49.882Z,19.73
2018-09-26T15:10:53.582Z,19.81
2018-09-26T15:13:57.562Z,19.80
2018-09-26T15:17:01.212Z,19.72
2018-09-26T15:20:05.369Z,19.59
2018-09-26T15:23:09.133Z,19.51
2018-09-26T15:26:12.883Z,19.43
2018-09-26T15:29:16.514Z,19.37
2018-09-26T15:32:20.291Z,19.39
2018-09-26T15:35:23.971Z,19.53
2018-09-26T15:38:27.533Z,19.53
2018-09-26T15:41:31.260Z,19.70
2018-09-26T15:44:35.874Z,19.89
2018-09-26T15:47:39.471Z,19.94
2018-09-26T15:50:43.214Z,19.91
2018-09-26T15:53:46.893Z,19.78
2018-09-26T15:56:50.478Z,19.90
2018-09-26T15:59:54.318Z,20.02
2018-09-26T16:02:57.867Z,20.06
2018-09-26T16:06:01.515Z,20.15
2018-09-26T16:09:05.879Z,20.13
2018-09-26T16:12:09.424Z,20.10
2018-09-26T16:15:12.926Z,19.94
2018-09-26T16:18:16.515Z,19.83
2018-09-26T16:21:20.044Z,19.66
2018-09-26T16:24:23.596Z,19.57
2018-09-26T16:27:27.068Z,19.51
2018-09-26T16:30:30.647Z,19.45
2018-09-26T16:33:34.253Z,19.32
2018-09-26T16:36:39.744Z,19.29
2018-09-26T16:39:43.206Z,19.26
2018-09-26T16:42:47.014Z,19.19
2018-09-26T16:45:50.935Z,19.13
2018-09-26T16:48:54.436Z,19.07
2018-09-26T16:51:58.145Z,18.95
2018-09-26T16:55:01.666Z,18.87
2018-09-26T16:58:05.204Z,18.80
2018-09-26T17:01:08.766Z,18.73
2018-09-26T17:04:12.412Z,18.64
2018-09-26T17:07:15.904Z,18.56
2018-09-26T17:10:19.425Z,18.47
2018-09-26T17:13:22.868Z,18.36
2018-09-26T17:16:26.562Z,18.15
2018-09-26T17:19:30.078Z,18.01
2018-09-26T17:22:33.618Z,17.77
2018-09-26T17:25:37.367Z,17.62
2018-09-26T17:28:40.960Z,17.40
2018-09-26T17:31:44.417Z,17.23
2018-09-26T17:34:48.015Z,17.03
2018-09-26T17:37:51.849Z,16.81
2018-09-26T17:40:56.360Z,16.69
2018-09-26T17:43:59.866Z,16.55
2018-09-26T17:47:03.405Z,16.46
2018-09-26T17:50:07.455Z,16.38
2018-09-26T17:53:10.967Z,16.27
2018-09-26T17:56:14.496Z,16.10
2018-09-26T17:59:18.010Z,16.00
2018-09-26T18:02:21.569Z,15.97
2018-09-26T18:05:25.111Z,15.89
2018-09-26T18:08:28.628Z,15.83
2018-09-26T18:11:32.145Z,15.72
2018-09-26T18:14:35.827Z,15.57
2018-09-26T18:17:39.320Z,15.48
2018-09-26T18:20:42.895Z,15.43
2018-09-26T18:23:46.433Z,15.25
2018-09-26T18:26:49.948Z,15.08
2018-09-26T18:29:53.538Z,14.96
2018-09-26T18:32:57.256Z,14.87
2018-09-26T18:36:00.723Z,14.81
2018-09-26T18:39:05.780Z,14.81
2018-09-26T18:42:09.259Z,14.90
2018-09-26T18:45:12.889Z,14.85
2018-09-26T18:48:16.372Z,14.69
2018-09-26T18:51:19.923Z,14.60
2018-09-26T18:54:23.448Z,14.46
2018-09-26T18:57:27.061Z,14.41
2018-09-26T19:00:30.700Z,14.33
2018-09-26T19:03:34.267Z,14.27
2018-09-26T19:06:39.972Z,14.11
2018-09-26T19:09:43.497Z,13.99
2018-09-26T19:12:47.240Z,13.89
2018-09-26T19:15:51.730Z,13.85
2018-09-26T19:18:55.285Z,13.73
2018-09-26T19:21:58.873Z,13.74
2018-09-26T19:25:02.383Z,13.62
2018-09-26T19:28:07.072Z,13.56
2018-09-26T19:31:13.165Z,13.50
2018-09-26T19:34:17.911Z,13.49
2018-09-26T19:37:22.394Z,13.51
2018-09-26T19:40:25.963Z,13.56
2018-09-26T19:43:29.595Z,13.51
2018-09-26T19:46:33.114Z,13.45
2018-09-26T19:49:36.661Z,13.43
2018-09-26T19:52:40.256Z,13.36
2018-09-26T19:55:43.921Z,13.30
2018-09-26T19:58:47.567Z,13.30
2018-09-26T20:01:51.101Z,13.27
2018-09-26T20:04:54.716Z,13.23
2018-09-26T20:07:59.351Z,13.20
2018-09-26T20:11:03.489Z,13.26
2018-09-26T20:14:07.296Z,13.31
2018-09-26T20:17:10.841Z,13.35
2018-09-26T20:20:14.344Z,13.29
2018-09-26T20:23:17.897Z,13.27
2018-09-26T20:26:21.393Z,13.25
2018-09-26T20:29:25.189Z,13.23
2018-09-26T20:32:28.717Z,13.20
2018-09-26T20:35:32.417Z,13.16
2018-09-26T20:38:36.326Z,13.09
2018-09-26T20:41:40.256Z,13.05
2018-09-26T20:44:44.825Z,12.86
2018-09-26T20:47:50.317Z,12.84
2018-09-26T20:50:53.821Z,12.75
2018-09-26T20:53:57.725Z,12.74
2018-09-26T20:57:01.305Z,12.73
2018-09-26T21:00:05.726Z,12.75
2018-09-26T21:03:09.368Z,12.81
2018-09-26T21:06:13.984Z,12.71
2018-09-26T21:09:17.675Z,12.63
2018-09-26T21:12:21.253Z,12.56
2018-09-26T21:15:24.778Z,12.52
2018-09-26T21:18:28.378Z,12.50
2018-09-26T21:21:31.899Z,12.50
2018-09-26T21:24:35.579Z,12.51
2018-09-26T21:27:39.220Z,12.47
2018-09-26T21:30:43.090Z,12.38
2018-09-26T21:33:46.554Z,12.35
2018-09-26T21:36:53.828Z,12.27
2018-09-26T21:39:58.382Z,12.29
2018-09-26T21:43:01.817Z,12.27
2018-09-26T21:46:05.394Z,12.17
2018-09-26T21:49:09.044Z,12.13
2018-09-26T21:52:12.594Z,12.07
2018-09-26T21:55:16.332Z,12.05
2018-09-26T21:58:19.880Z,12.06
2018-09-26T22:01:23.551Z,12.05
2018-09-26T22:04:27.066Z,12.00
2018-09-26T22:07:30.501Z,11.97
2018-09-26T22:10:34.061Z,11.98
2018-09-26T22:13:39.729Z,11.87
2018-09-26T22:16:43.219Z,11.84
2018-09-26T22:19:50.441Z,11.81
2018-09-26T22:23:07.242Z,11.79
2018-09-26T22:26:18.045Z,11.80
2018-09-26T22:29:21.572Z,11.75
2018-09-26T22:32:26.067Z,11.70
2018-09-26T22:35:31.648Z,11.67
2018-09-26T22:38:43.591Z,11.62
2018-09-26T22:41:51.961Z,11.51
2018-09-26T22:44:59.224Z,11.51
2018-09-26T22:48:02.797Z,11.54
2018-09-26T22:51:06.370Z,11.57
2018-09-26T22:54:10.944Z,11.63
2018-09-26T22:57:14.495Z,11.55
2018-09-26T23:00:18.006Z,11.48
2018-09-26T23:03:21.533Z,11.38
2018-09-26T23:06:24.985Z,11.40
2018-09-26T23:09:28.713Z,11.40
2018-09-26T23:12:32.272Z,11.36
2018-09-26T23:15:37.819Z,11.36
2018-09-26T23:18:41.278Z,11.31
2018-09-26T23:21:45.157Z,11.23
2018-09-26T23:24:48.665Z,11.24
2018-09-26T23:27:52.165Z,11.21
2018-09-26T23:30:55.695Z,11.16
2018-09-26T23:33:59.176Z,11.14
2018-09-26T23:37:02.744Z,11.12
2018-09-26T23:40:06.515Z,11.13
2018-09-26T23:43:09.985Z,11.11
2018-09-26T23:46:13.491Z,11.10
2018-09-26T23:49:17.055Z,11.12
2018-09-26T23:52:20.595Z,11.12
2018-09-26T23:55:24.191Z,11.08
2018-09-26T23:58:27.701Z,11.04
